Time;durP1;ratioP1;P1;durP2;ratioP2;P2;SDS_P1;SDS_P2;PMS_P1;PMS_P2;Temp;Humidity;BMP_temperature;BMP_pressure;BME280_temperature;BME280_humidity;BME280_pressure;Samples;Min_cycle;Max_cycle;Signal;HPM_P1;HPM_P2
2023/04/15 00:00:15;;;;;;;12.30;6.20;;;5.90;99.90;;;;;;4879654;29;20485;-91
2023/04/15 00:02:41;;;;;;;11.55;6.45;;;5.70;99.90;;;;;;4879206;29;20413;-91
2023/04/15 00:05:07;;;;;;;10.90;7.18;;;5.70;99.90;;;;;;4880136;29;20425;-92
2023/04/15 00:07:33;;;;;;;11.13;6.88;;;5.60;99.90;;;;;;4878793;29;20508;-91
2023/04/15 00:09:58;;;;;;;13.40;6.68;;;5.60;99.90;;;;;;4879528;29;20425;-92
2023/04/15 00:12:25;;;;;;;10.57;6.60;;;5.70;99.90;;;;;;4879119;29;20413;-91
2023/04/15 00:14:51;;;;;;;12.48;6.68;;;5.50;99.90;;;;;;4879147;29;20492;-93
2023/04/15 00:17:17;;;;;;;8.15;6.15;;;5.50;99.90;;;;;;4879030;29;20520;-91
2023/04/15 00:19:44;;;;;;;11.02;6.90;;;5.50;99.90;;;;;;4878868;29;20459;-92
2023/04/15 00:22:11;;;;;;;12.17;7.10;;;5.40;99.90;;;;;;4879354;29;20460;-90
2023/04/15 00:24:37;;;;;;;11.73;6.82;;;5.50;99.90;;;;;;4879168;29;20782;-91
2023/04/15 00:27:03;;;;;;;10.68;6.80;;;5.30;99.90;;;;;;4879490;29;20445;-90
2023/04/15 00:29:29;;;;;;;10.35;6.75;;;5.30;99.90;;;;;;4878888;29;20450;-90
2023/04/15 00:31:56;;;;;;;11.10;6.83;;;5.40;99.90;;;;;;4879226;29;20418;-91
2023/04/15 00:34:22;;;;;;;12.63;7.15;;;5.30;99.90;;;;;;4879251;29;20453;-92
2023/04/15 00:36:48;;;;;;;13.27;8.03;;;5.20;99.90;;;;;;4878525;29;20522;-93
2023/04/15 00:39:15;;;;;;;12.85;8.20;;;5.20;99.90;;;;;;4879239;29;20997;-91
2023/04/15 00:41:41;;;;;;;11.90;7.33;;;5.20;99.90;;;;;;4878571;29;20456;-91
2023/04/15 00:44:08;;;;;;;13.65;7.82;;;5.10;99.90;;;;;;4879311;29;20418;-93
2023/04/15 00:46:38;;;;;;;12.30;8.32;;;5.00;99.90;;;;;;4878611;29;20417;-92
2023/04/15 00:49:07;;;;;;;12.68;8.18;;;5.10;99.90;;;;;;4879223;29;20428;-91
2023/04/15 00:51:35;;;;;;;11.35;7.55;;;5.00;99.90;;;;;;4878943;29;20421;-91
2023/04/15 00:54:06;;;;;;;12.43;8.05;;;5.30;99.90;;;;;;4878600;29;20474;-92
2023/04/15 00:56:37;;;;;;;14.65;9.20;;;4.90;99.90;;;;;;4878836;29;20445;-92
2023/04/15 00:59:05;;;;;;;15.68;8.77;;;4.90;99.90;;;;;;4878047;29;20949;-92
2023/04/15 01:01:33;;;;;;;12.80;8.30;;;4.90;99.90;;;;;;4879179;29;20414;-92
2023/04/15 01:03:58;;;;;;;12.07;8.63;;;5.50;99.90;;;;;;4878366;29;20416;-92
2023/04/15 01:06:26;;;;;;;12.00;9.23;;;5.10;99.90;;;;;;4878972;29;20410;-92
2023/04/15 01:08:53;;;;;;;12.27;8.77;;;4.90;99.90;;;;;;4878671;29;20421;-91
2023/04/15 01:11:19;;;;;;;16.08;11.02;;;4.90;99.90;;;;;;4878298;29;20413;-91
2023/04/15 01:13:46;;;;;;;15.02;10.18;;;4.80;99.90;;;;;;4894698;29;20432;-91
2023/04/15 01:16:13;;;;;;;12.88;10.77;;;4.80;99.90;;;;;;4894012;29;20443;-90
2023/04/15 01:18:38;;;;;;;15.88;10.88;;;4.80;99.90;;;;;;4879453;29;20405;-91
2023/04/15 01:21:05;;;;;;;15.95;11.05;;;4.70;99.90;;;;;;4881842;29;20839;-92
2023/04/15 01:23:32;;;;;;;16.15;12.20;;;4.70;99.90;;;;;;4898608;29;20786;-92
2023/04/15 01:25:58;;;;;;;16.05;11.65;;;4.60;99.90;;;;;;4897449;29;20493;-92
2023/04/15 01:28:24;;;;;;;15.25;12.73;;;4.70;99.90;;;;;;4882247;29;20496;-93
2023/04/15 01:31:07;;;;;;;16.45;12.15;;;4.70;99.90;;;;;;4882326;29;21097;-92
2023/04/15 01:33:33;;;;;;;15.35;11.73;;;4.60;99.90;;;;;;4897281;29;20939;-92
2023/04/15 01:35:59;;;;;;;16.00;11.30;;;5.10;99.90;;;;;;4882454;29;20436;-91
2023/04/15 01:38:27;;;;;;;17.15;11.88;;;4.60;99.90;;;;;;4896952;29;20428;-90
2023/04/15 01:40:52;;;;;;;16.52;11.70;;;4.70;99.90;;;;;;4898154;29;20795;-92
2023/04/15 01:43:18;;;;;;;15.68;12.15;;;4.70;99.90;;;;;;4881994;29;21119;-92
2023/04/15 01:45:44;;;;;;;17.40;11.60;;;4.60;99.90;;;;;;4881872;29;20417;-92
2023/04/15 01:48:11;;;;;;;14.98;12.02;;;4.60;99.90;;;;;;4882091;29;20565;-91
2023/04/15 01:50:37;;;;;;;18.77;12.60;;;4.70;99.90;;;;;;4881825;29;20424;-93
2023/04/15 01:53:03;;;;;;;19.30;13.60;;;4.60;99.90;;;;;;4881880;29;20410;-91
2023/04/15 01:55:29;;;;;;;16.10;11.40;;;4.50;99.90;;;;;;4896917;29;20496;-92
2023/04/15 01:57:55;;;;;;;17.85;14.25;;;4.50;99.90;;;;;;4882108;29;20437;-91
2023/04/15 02:00:21;;;;;;;20.88;14.48;;;4.50;99.90;;;;;;4881154;29;20444;-91
2023/04/15 02:02:48;;;;;;;19.25;13.35;;;4.60;99.90;;;;;;4881848;29;20421;-92
2023/04/15 02:05:14;;;;;;;19.42;13.43;;;4.40;99.90;;;;;;4882212;29;20843;-92
2023/04/15 02:07:42;;;;;;;23.08;16.20;;;4.40;99.90;;;;;;4881102;29;20413;-91
2023/04/15 02:10:09;;;;;;;18.63;14.45;;;4.40;99.90;;;;;;4881809;29;20450;-92
2023/04/15 02:12:35;;;;;;;19.52;14.40;;;4.30;99.90;;;;;;4881226;29;20410;-92
2023/04/15 02:15:01;;;;;;;21.65;16.40;;;4.60;99.90;;;;;;4881640;29;20433;-95
2023/04/15 02:17:26;;;;;;;27.27;18.15;;;4.30;99.90;;;;;;4880925;29;20839;-92
2023/04/15 02:19:54;;;;;;;21.90;15.32;;;4.40;99.90;;;;;;4881834;29;20421;-93
2023/04/15 02:22:20;;;;;;;20.80;15.88;;;4.40;99.90;;;;;;4881573;29;20818;-91
2023/04/15 02:24:46;;;;;;;23.00;17.17;;;4.30;99.90;;;;;;4881434;29;20573;-93
2023/04/15 02:27:16;;;;;;;21.13;15.87;;;4.30;99.90;;;;;;4881237;29;20410;-93
2023/04/15 02:29:43;;;;;;;26.60;19.70;;;4.30;99.90;;;;;;4880436;29;20467;-92
2023/04/15 02:32:10;;;;;;;22.52;16.45;;;4.30;99.90;;;;;;4881166;29;20510;-92
2023/04/15 02:34:37;;;;;;;17.58;14.10;;;4.30;99.90;;;;;;4880386;29;20941;-93
2023/04/15 02:37:03;;;;;;;18.58;15.18;;;4.00;99.90;;;;;;4881384;29;20448;-92
2023/04/15 02:39:29;;;;;;;21.15;14.48;;;4.20;99.90;;;;;;4881424;29;20425;-91
2023/04/15 02:41:57;;;;;;;19.15;14.55;;;4.30;99.90;;;;;;4880923;29;20432;-93
2023/04/15 02:44:23;;;;;;;20.43;14.57;;;4.40;99.90;;;;;;4881110;29;20414;-93
2023/04/15 02:46:51;;;;;;;20.10;14.97;;;4.00;99.90;;;;;;4880576;29;20482;-91
2023/04/15 02:49:17;;;;;;;19.20;15.75;;;4.20;99.90;;;;;;4881419;29;20481;-92
2023/04/15 02:51:46;;;;;;;19.03;14.97;;;4.00;99.90;;;;;;4880065;29;20409;-92
2023/04/15 02:54:12;;;;;;;20.73;16.00;;;4.00;99.90;;;;;;4881075;29;20513;-92
2023/04/15 02:56:37;;;;;;;22.27;16.60;;;3.90;99.90;;;;;;4880208;29;20464;-92
2023/04/15 02:59:03;;;;;;;20.60;16.05;;;3.90;99.90;;;;;;4881091;29;20421;-93
2023/04/15 03:01:29;;;;;;;19.83;15.90;;;4.50;99.90;;;;;;4880432;29;20477;-92
2023/04/15 03:03:55;;;;;;;20.30;15.95;;;4.60;99.90;;;;;;4879875;29;20799;-92
2023/04/15 03:06:20;;;;;;;20.23;16.00;;;4.40;99.90;;;;;;4881035;29;20409;-92
2023/04/15 03:08:46;;;;;;;21.17;16.23;;;3.70;99.90;;;;;;4880059;29;20414;-92
2023/04/15 03:11:13;;;;;;;25.35;18.50;;;3.90;99.90;;;;;;4880786;29;20405;-91
2023/04/15 03:13:40;;;;;;;22.73;18.52;;;3.80;99.90;;;;;;4895633;29;20468;-93
2023/04/15 03:16:06;;;;;;;24.73;18.33;;;4.00;99.90;;;;;;4880884;29;20461;-91
2023/04/15 03:18:32;;;;;;;23.10;18.13;;;3.80;99.90;;;;;;4880109;29;20496;-91
2023/04/15 03:20:57;;;;;;;24.90;18.50;;;3.70;99.90;;;;;;4880475;29;20482;-92
2023/04/15 03:23:24;;;;;;;23.85;17.77;;;3.80;99.90;;;;;;4880214;29;20421;-91
2023/04/15 03:25:50;;;;;;;21.17;17.45;;;3.70;99.90;;;;;;4879666;29;21207;-90
2023/04/15 03:28:16;;;;;;;27.92;19.83;;;4.00;99.90;;;;;;4880680;29;20460;-93
2023/04/15 03:30:41;;;;;;;24.47;18.17;;;3.70;99.90;;;;;;4879575;29;20426;-93
2023/04/15 03:33:07;;;;;;;24.33;18.57;;;3.70;99.90;;;;;;4880559;29;20485;-91
2023/04/15 03:35:33;;;;;;;30.00;22.15;;;3.90;99.90;;;;;;4879794;29;20402;-92
2023/04/15 03:37:59;;;;;;;26.83;20.20;;;3.40;99.90;;;;;;4895635;29;20492;-93
2023/04/15 03:40:25;;;;;;;28.63;21.67;;;3.60;99.90;;;;;;4879903;29;20437;-92
2023/04/15 03:42:51;;;;;;;33.28;23.60;;;3.60;99.90;;;;;;4879050;29;20768;-92
2023/04/15 03:45:17;;;;;;;31.93;22.37;;;3.80;99.90;;;;;;4879773;29;20409;-93
2023/04/15 03:47:43;;;;;;;26.70;21.47;;;3.60;99.90;;;;;;4879448;29;20432;-92
2023/04/15 03:50:09;;;;;;;27.10;20.70;;;3.60;99.90;;;;;;4880268;29;20521;-91
2023/04/15 03:52:34;;;;;;;28.73;21.80;;;3.50;99.90;;;;;;4879143;29;20500;-92
2023/04/15 03:55:00;;;;;;;30.60;21.92;;;3.80;99.90;;;;;;4880188;29;20452;-91
2023/04/15 03:57:26;;;;;;;29.02;21.50;;;3.60;99.90;;;;;;4878999;29;20596;-92
2023/04/15 03:59:51;;;;;;;33.95;23.80;;;3.50;99.90;;;;;;4879596;29;20756;-92
2023/04/15 04:02:17;;;;;;;29.47;21.63;;;3.60;99.90;;;;;;4879249;29;20429;-92
2023/04/15 04:04:43;;;;;;;33.23;23.03;;;3.60;99.90;;;;;;4879313;29;20418;-91
2023/04/15 04:07:14;;;;;;;35.03;23.52;;;3.50;99.90;;;;;;4879514;29;20482;-90
2023/04/15 04:09:40;;;;;;;30.90;23.13;;;3.40;99.90;;;;;;4894383;29;20500;-91
2023/04/15 04:12:06;;;;;;;30.23;22.48;;;3.50;99.90;;;;;;4879752;29;20421;-91
2023/04/15 04:14:32;;;;;;;30.05;22.45;;;3.40;99.90;;;;;;4879030;29;20409;-92
2023/04/15 04:16:58;;;;;;;32.95;24.40;;;3.20;99.90;;;;;;4879847;29;20445;-91
2023/04/15 04:19:23;;;;;;;26.43;20.50;;;3.30;99.90;;;;;;4879132;29;20417;-92
2023/04/15 04:21:49;;;;;;;28.17;21.63;;;3.40;99.90;;;;;;4878935;29;20423;-92
2023/04/15 04:24:15;;;;;;;33.92;23.67;;;3.30;99.90;;;;;;4878864;29;20528;-92
2023/04/15 04:26:40;;;;;;;32.70;23.35;;;3.30;99.90;;;;;;4878893;29;20429;-91
2023/04/15 04:29:06;;;;;;;34.17;24.05;;;3.30;99.90;;;;;;4879579;29;20831;-91
2023/04/15 04:31:32;;;;;;;31.92;23.40;;;3.30;99.90;;;;;;4878784;29;20409;-90
2023/04/15 04:33:58;;;;;;;36.88;24.73;;;3.00;99.90;;;;;;4879578;29;20405;-91
2023/04/15 04:36:25;;;;;;;35.10;24.57;;;3.20;99.90;;;;;;4878715;29;20441;-90
2023/04/15 04:38:50;;;;;;;33.55;23.40;;;3.10;99.90;;;;;;4879326;29;20429;-91
2023/04/15 04:41:17;;;;;;;34.03;23.23;;;3.30;99.90;;;;;;4878908;29;20575;-91
2023/04/15 04:43:42;;;;;;;36.90;25.83;;;3.10;99.90;;;;;;4878501;29;20786;-91
2023/04/15 04:46:09;;;;;;;42.83;26.47;;;3.20;99.90;;;;;;4879154;29;20410;-91
2023/04/15 04:48:35;;;;;;;36.58;24.63;;;3.50;99.90;;;;;;4878618;29;20549;-92
2023/04/15 04:51:01;;;;;;;32.42;22.08;;;3.10;99.90;;;;;;4879072;29;20509;-91
2023/04/15 04:53:27;;;;;;;31.15;22.42;;;2.70;99.90;;;;;;4878393;29;20417;-92
2023/04/15 04:55:52;;;;;;;29.13;20.80;;;2.90;99.90;;;;;;4882683;29;20420;-92
2023/04/15 04:58:18;;;;;;;33.45;23.73;;;2.90;99.90;;;;;;4882593;29;20445;-90
2023/04/15 05:00:44;;;;;;;36.65;25.40;;;2.90;99.90;;;;;;4882589;29;20460;-91
2023/04/15 05:03:10;;;;;;;37.27;24.93;;;3.00;99.90;;;;;;4883065;29;20417;-91
2023/04/15 05:05:38;;;;;;;37.88;24.85;;;2.90;99.90;;;;;;4881974;29;20409;-91
2023/04/15 05:08:04;;;;;;;54.08;31.52;;;3.00;99.90;;;;;;4882499;29;20416;-91
2023/04/15 05:10:30;;;;;;;49.88;31.08;;;2.90;99.90;;;;;;4881862;29;20938;-92
2023/04/15 05:12:56;;;;;;;39.70;27.67;;;3.10;99.90;;;;;;4882809;29;20516;-92
2023/04/15 05:15:22;;;;;;;43.30;28.55;;;3.10;99.90;;;;;;4882222;29;20465;-91
2023/04/15 05:17:48;;;;;;;53.45;33.03;;;3.30;99.90;;;;;;4882404;29;20444;-91
2023/04/15 05:20:14;;;;;;;59.37;34.63;;;3.00;99.90;;;;;;4882356;29;20413;-92
2023/04/15 05:22:40;;;;;;;57.80;34.17;;;3.30;99.90;;;;;;4881723;29;20414;-91
2023/04/15 05:25:06;;;;;;;41.47;28.08;;;3.60;99.90;;;;;;4882081;29;20472;-91
2023/04/15 05:27:31;;;;;;;51.28;31.98;;;3.40;99.90;;;;;;4881590;29;20484;-93
2023/04/15 05:29:57;;;;;;;42.03;28.90;;;3.40;99.90;;;;;;4882355;29;20460;-90
2023/04/15 05:32:23;;;;;;;43.03;28.43;;;3.90;99.90;;;;;;4881299;29;20421;-91
2023/04/15 05:34:48;;;;;;;45.60;29.13;;;3.90;99.90;;;;;;4882026;29;20432;-92
2023/04/15 05:37:14;;;;;;;53.17;32.97;;;4.00;99.90;;;;;;4879267;29;20437;-91
2023/04/15 05:39:41;;;;;;;47.50;30.58;;;4.20;99.90;;;;;;4881266;29;20445;-91
2023/04/15 05:42:07;;;;;;;43.53;29.17;;;4.30;99.90;;;;;;4869934;29;20419;-90
2023/04/15 05:44:33;;;;;;;48.45;31.45;;;4.70;99.90;;;;;;4876600;29;20512;-92
2023/04/15 05:46:59;;;;;;;45.42;30.50;;;5.30;99.90;;;;;;4875248;29;20538;-92
2023/04/15 05:49:25;;;;;;;47.40;29.67;;;4.90;99.90;;;;;;4860793;29;21023;-92
2023/04/15 05:51:50;;;;;;;39.47;27.30;;;5.10;99.90;;;;;;4866455;29;20485;-90
2023/04/15 05:54:17;;;;;;;38.73;26.53;;;5.10;99.90;;;;;;4880636;29;20421;-94
2023/04/15 05:56:43;;;;;;;38.80;26.20;;;5.20;99.90;;;;;;4881304;29;20425;-92
2023/04/15 05:59:08;;;;;;;36.58;25.73;;;5.60;99.90;;;;;;4880974;29;20409;-91
2023/04/15 06:01:34;;;;;;;35.88;24.55;;;5.40;99.90;;;;;;4879651;29;20926;-92
2023/04/15 06:04:00;;;;;;;36.87;24.93;;;5.50;99.90;;;;;;4862957;29;20526;-93
2023/04/15 06:06:41;;;;;;;29.33;21.63;;;5.60;99.90;;;;;;4860993;29;20426;-91
2023/04/15 06:09:07;;;;;;;29.15;22.02;;;5.80;99.90;;;;;;4862009;29;20429;-91
2023/04/15 06:11:33;;;;;;;31.02;22.35;;;6.10;99.90;;;;;;4865673;29;20406;-91
2023/04/15 06:13:59;;;;;;;25.58;19.42;;;6.10;99.90;;;;;;4881375;29;20429;-91
2023/04/15 06:16:25;;;;;;;24.95;19.27;;;6.50;99.90;;;;;;4880409;29;20807;-92
2023/04/15 06:18:50;;;;;;;24.63;18.93;;;6.30;99.90;;;;;;4881402;29;20421;-92
2023/04/15 06:21:16;;;;;;;25.27;19.93;;;6.40;99.90;;;;;;4879771;29;20472;-91
2023/04/15 06:23:42;;;;;;;26.30;20.20;;;6.40;99.90;;;;;;4861475;29;20426;-92
2023/04/15 06:26:07;;;;;;;29.88;20.92;;;6.60;99.90;;;;;;4862074;29;20423;-91
2023/04/15 06:28:33;;;;;;;27.10;19.33;;;6.50;99.90;;;;;;4861423;29;20407;-93
2023/04/15 06:31:00;;;;;;;26.03;19.13;;;6.90;99.90;;;;;;4862701;29;20434;-91
2023/04/15 06:33:26;;;;;;;21.55;17.85;;;7.00;99.90;;;;;;4879441;29;20406;-92
2023/04/15 06:35:51;;;;;;;27.27;20.40;;;7.00;99.90;;;;;;4880719;29;20419;-94
2023/04/15 06:38:17;;;;;;;27.67;19.93;;;6.90;99.90;;;;;;4863507;29;20435;-92
2023/04/15 06:40:43;;;;;;;25.57;19.33;;;7.00;99.90;;;;;;4862218;29;20426;-93
2023/04/15 06:43:09;;;;;;;30.88;20.88;;;7.20;99.90;;;;;;4861606;29;20415;-91
2023/04/15 06:45:35;;;;;;;27.00;19.95;;;7.10;99.90;;;;;;4863863;29;20410;-92
2023/04/15 06:48:00;;;;;;;29.70;19.75;;;7.50;99.90;;;;;;4862105;29;20415;-93
2023/04/15 06:50:26;;;;;;;25.17;18.60;;;7.60;99.90;;;;;;4866826;29;20444;-93
2023/04/15 06:52:55;;;;;;;27.02;20.00;;;7.80;99.90;;;;;;4868471;29;20509;-93
2023/04/15 06:55:21;;;;;;;27.00;19.88;;;7.70;99.90;;;;;;4860689;29;20415;-91
2023/04/15 06:57:46;;;;;;;23.45;18.88;;;7.80;99.90;;;;;;4872519;29;20448;-93
2023/04/15 07:00:13;;;;;;;26.33;18.83;;;8.60;99.90;;;;;;4879490;29;20918;-92
2023/04/15 07:02:38;;;;;;;25.15;18.67;;;8.20;99.90;;;;;;4879157;29;20432;-91
2023/04/15 07:05:05;;;;;;;23.88;17.67;;;8.20;99.90;;;;;;4870473;29;20423;-94
2023/04/15 07:07:31;;;;;;;21.63;17.20;;;8.60;99.90;;;;;;4860331;29;20455;-94
2023/04/15 07:09:57;;;;;;;19.45;15.85;;;9.60;99.90;;;;;;4860879;29;20411;-92
2023/04/15 07:12:23;;;;;;;18.67;14.77;;;8.90;99.90;;;;;;4868893;29;20417;-92
2023/04/15 07:14:48;;;;;;;18.13;14.73;;;9.30;99.90;;;;;;4879755;29;20425;-93
2023/04/15 07:17:14;;;;;;;15.17;13.13;;;9.40;99.90;;;;;;4880639;29;20480;-94
2023/04/15 07:19:40;;;;;;;15.48;12.32;;;9.80;99.90;;;;;;4898596;29;20416;-94
2023/04/15 07:22:06;;;;;;;13.05;10.43;;;9.90;99.90;;;;;;4886317;29;20421;-92
2023/04/15 07:24:32;;;;;;;11.40;10.13;;;10.70;99.90;;;;;;4877829;29;20421;-93
2023/04/15 07:26:58;;;;;;;11.43;10.23;;;9.90;99.90;;;;;;4879435;29;21009;-93
2023/04/15 07:29:25;;;;;;;12.68;10.43;;;9.70;99.90;;;;;;4879183;29;20500;-93
2023/04/15 07:31:50;;;;;;;10.88;9.77;;;9.70;99.90;;;;;;4880376;29;20424;-93
2023/04/15 07:34:17;;;;;;;10.40;8.13;;;10.00;99.90;;;;;;4887250;29;20427;-91
2023/04/15 07:36:43;;;;;;;11.13;8.57;;;10.50;99.90;;;;;;4879008;29;20441;-93
2023/04/15 07:39:09;;;;;;;8.37;7.13;;;10.20;99.90;;;;;;4877903;29;21125;-91
2023/04/15 07:41:34;;;;;;;8.45;7.50;;;10.20;99.90;;;;;;4878442;29;20969;-92
2023/04/15 07:44:00;;;;;;;7.37;6.37;;;10.20;99.90;;;;;;4880240;29;20783;-96
2023/04/15 07:46:28;;;;;;;7.33;6.13;;;10.10;99.90;;;;;;4879734;29;20424;-93
2023/04/15 07:48:54;;;;;;;6.55;5.82;;;10.20;99.90;;;;;;4878236;29;20417;-93
2023/04/15 07:51:20;;;;;;;6.50;5.72;;;10.40;99.90;;;;;;4877872;29;20429;-92
2023/04/15 07:53:47;;;;;;;7.47;5.88;;;10.40;99.90;;;;;;4863311;29;20426;-92
2023/04/15 07:56:13;;;;;;;7.03;5.38;;;10.70;99.90;;;;;;4859106;29;20414;-94
2023/04/15 07:58:39;;;;;;;6.05;5.18;;;10.90;99.90;;;;;;4860416;29;20503;-92
2023/04/15 08:01:04;;;;;;;6.32;5.18;;;10.80;99.90;;;;;;4860617;29;20469;-94
2023/04/15 08:03:30;;;;;;;5.60;5.00;;;11.00;99.90;;;;;;4860841;29;20418;-93
2023/04/15 08:05:56;;;;;;;8.32;5.57;;;11.40;99.90;;;;;;4859794;29;20502;-95
2023/04/15 08:08:22;;;;;;;5.15;4.60;;;11.40;99.90;;;;;;4860174;29;20423;-91
2023/04/15 08:10:48;;;;;;;5.32;4.20;;;11.90;99.90;;;;;;4859357;29;20924;-91
2023/04/15 08:13:32;;;;;;;4.53;3.45;;;11.60;99.90;;;;;;4861291;29;20403;-93
2023/04/15 08:16:20;;;;;;;4.57;2.90;;;11.90;99.90;;;;;;4860328;29;20427;-95
2023/04/15 08:18:47;;;;;;;4.30;3.00;;;12.10;99.90;;;;;;4859070;29;20457;-92
2023/04/15 08:21:13;;;;;;;3.80;2.53;;;12.20;99.90;;;;;;4860911;29;20411;-93
2023/04/15 08:23:39;;;;;;;3.28;2.83;;;12.40;99.90;;;;;;4861177;29;20427;-93
2023/04/15 08:26:05;;;;;;;4.57;2.90;;;12.30;99.90;;;;;;4861508;29;20917;-94
2023/04/15 08:28:35;;;;;;;4.53;3.22;;;12.30;99.90;;;;;;4867876;29;20409;-94
2023/04/15 08:31:00;;;;;;;4.05;2.95;;;12.60;99.90;;;;;;4881110;29;20417;-92
2023/04/15 08:33:27;;;;;;;5.10;3.47;;;12.00;99.90;;;;;;4878488;29;20480;-92
2023/04/15 08:35:53;;;;;;;6.88;3.67;;;12.60;99.90;;;;;;4880451;29;20498;-95
2023/04/15 08:38:18;;;;;;;6.13;4.57;;;12.10;99.90;;;;;;4878866;29;20950;-92
2023/04/15 08:40:45;;;;;;;5.30;4.57;;;11.90;99.90;;;;;;4878433;29;20448;-94
2023/04/15 08:43:37;;;;;;;;;;;;;;;;;;;;;
2023/04/15 08:46:04;;;;;;;4.38;3.38;;;11.40;99.90;;;;;;4876283;29;20415;-94
2023/04/15 08:48:37;;;;;;;3.93;3.20;;;11.40;99.90;;;;;;4862452;29;20423;-94
2023/04/15 08:51:03;;;;;;;5.25;3.40;;;11.40;99.90;;;;;;4863183;29;20763;-93
2023/04/15 08:53:55;;;;;;;5.00;3.20;;;11.60;99.90;;;;;;4862481;29;20481;-94
2023/04/15 08:56:25;;;;;;;6.00;3.03;;;11.50;99.90;;;;;;4869412;29;20464;-94
2023/04/15 08:58:52;;;;;;;4.85;3.00;;;11.50;99.90;;;;;;4879954;29;20429;-93
2023/04/15 09:01:18;;;;;;;5.00;3.30;;;11.60;99.90;;;;;;4879890;29;20428;-94
2023/04/15 09:03:48;;;;;;;4.25;2.63;;;11.60;99.90;;;;;;4879730;29;20417;-95
2023/04/15 09:06:29;;;;;;;4.80;2.80;;;11.60;99.90;;;;;;4879403;29;20481;-94
2023/04/15 09:08:56;;;;;;;3.70;2.50;;;11.60;99.90;;;;;;4878569;29;20425;-90
2023/04/15 09:11:22;;;;;;;3.45;2.25;;;11.50;99.90;;;;;;4879172;29;20950;-93
2023/04/15 09:13:48;;;;;;;4.07;2.40;;;11.80;99.90;;;;;;4879143;29;20456;-91
2023/04/15 09:16:14;;;;;;;3.97;2.72;;;11.40;99.90;;;;;;4879131;29;20917;-91
2023/04/15 09:18:40;;;;;;;5.50;3.42;;;11.40;99.90;;;;;;4878067;29;20438;-93
2023/04/15 09:21:07;;;;;;;2.72;1.58;;;11.20;99.90;;;;;;4879477;29;20468;-93
2023/04/15 09:23:34;;;;;;;3.45;1.70;;;11.20;99.90;;;;;;4878435;29;20413;-94
2023/04/15 09:26:01;;;;;;;3.75;1.90;;;11.40;99.90;;;;;;4877348;29;20452;-91
2023/04/15 09:28:27;;;;;;;2.95;1.60;;;11.30;99.90;;;;;;4878606;29;21057;-91
2023/04/15 09:31:00;;;;;;;3.10;1.40;;;11.40;99.90;;;;;;4877878;29;20481;-92
2023/04/15 09:33:27;;;;;;;4.27;1.23;;;11.40;99.90;;;;;;4877549;29;20424;-92
2023/04/15 09:36:04;;;;;;;2.75;0.88;;;11.90;99.90;;;;;;4878043;29;20417;-92
2023/04/15 09:38:30;;;;;;;3.15;0.80;;;11.80;99.90;;;;;;4878441;29;20429;-92
2023/04/15 09:41:01;;;;;;;3.28;1.10;;;11.90;99.90;;;;;;4880001;29;20409;-93
2023/04/15 09:43:38;;;;;;;5.55;1.10;;;11.80;99.90;;;;;;4881193;29;20416;-91
2023/04/15 09:46:04;;;;;;;4.22;1.40;;;12.40;99.90;;;;;;4881409;29;20433;-91
2023/04/15 09:48:30;;;;;;;3.28;1.23;;;12.30;99.90;;;;;;4881290;29;20425;-93
2023/04/15 09:51:00;;;;;;;2.20;0.50;;;12.90;99.90;;;;;;4883681;29;20424;-95
2023/04/15 09:53:26;;;;;;;1.70;0.32;;;13.30;99.90;;;;;;4882131;29;20425;-93
2023/04/15 09:55:57;;;;;;;2.85;0.60;;;13.30;99.90;;;;;;4882675;29;20421;-92
2023/04/15 09:58:25;;;;;;;3.43;0.50;;;13.30;99.90;;;;;;4880970;29;20444;-91
2023/04/15 10:00:51;;;;;;;1.88;0.40;;;13.20;99.90;;;;;;4879693;29;20441;-90
2023/04/15 10:03:24;;;;;;;2.70;0.50;;;13.10;99.90;;;;;;4862897;29;20982;-93
2023/04/15 10:05:52;;;;;;;2.20;0.43;;;12.90;99.90;;;;;;4862623;29;20462;-93
2023/04/15 10:08:20;;;;;;;2.42;0.47;;;13.20;99.90;;;;;;4878454;29;20423;-94
2023/04/15 10:10:47;;;;;;;1.93;0.40;;;12.60;99.90;;;;;;4862355;29;20414;-91
2023/04/15 10:13:17;;;;;;;3.30;0.55;;;12.20;99.90;;;;;;4862970;29;20504;-90
2023/04/15 10:15:47;;;;;;;3.95;0.47;;;12.40;99.90;;;;;;4862862;29;20505;-90
2023/04/15 10:18:18;;;;;;;2.95;0.60;;;12.00;99.90;;;;;;4862341;29;20482;-89
2023/04/15 10:20:45;;;;;;;2.92;0.70;;;11.90;99.90;;;;;;4862700;29;20410;-92
2023/04/15 10:23:14;;;;;;;1.57;0.40;;;11.80;99.90;;;;;;4861830;29;20415;-92
2023/04/15 10:25:50;;;;;;;2.78;0.60;;;11.90;99.90;;;;;;4863266;29;20772;-92
2023/04/15 10:28:20;;;;;;;2.40;0.55;;;12.10;99.90;;;;;;4862613;29;20411;-94
2023/04/15 10:30:51;;;;;;;1.55;0.35;;;12.30;99.90;;;;;;4865348;29;20474;-93
2023/04/15 10:33:21;;;;;;;2.58;0.50;;;12.40;99.90;;;;;;4861721;29;20422;-91
2023/04/15 10:35:49;;;;;;;1.95;0.50;;;12.60;99.90;;;;;;4862213;29;20429;-92
2023/04/15 10:38:36;;;;;;;3.53;0.40;;;12.80;99.90;;;;;;4862712;29;20957;-91
2023/04/15 10:41:21;;;;;;;2.53;0.60;;;12.50;99.90;;;;;;4862117;29;20431;-91
2023/04/15 10:43:52;;;;;;;2.13;0.40;;;12.50;99.90;;;;;;4862914;29;20808;-93
2023/04/15 10:46:22;;;;;;;2.40;0.60;;;12.40;99.90;;;;;;4862090;29;20426;-91
2023/04/15 10:48:52;;;;;;;2.93;0.47;;;12.10;99.90;;;;;;4862182;29;20412;-92
2023/04/15 10:51:31;;;;;;;1.88;0.40;;;11.80;99.90;;;;;;4861872;29;20446;-90
2023/04/15 10:53:58;;;;;;;2.45;0.73;;;11.60;99.90;;;;;;4861245;29;20426;-89
2023/04/15 10:56:25;;;;;;;2.38;0.63;;;11.50;99.90;;;;;;4862121;29;20568;-91
2023/04/15 10:58:50;;;;;;;3.95;0.68;;;11.60;99.90;;;;;;4861651;29;20454;-90
2023/04/15 11:01:19;;;;;;;3.70;0.77;;;11.90;99.90;;;;;;4862084;29;20939;-92
2023/04/15 11:03:45;;;;;;;2.83;0.70;;;11.70;99.90;;;;;;4861973;29;20415;-90
2023/04/15 11:06:11;;;;;;;3.73;0.70;;;11.80;99.90;;;;;;4861680;29;20913;-91
2023/04/15 11:09:02;;;;;;;3.20;0.93;;;11.80;99.90;;;;;;4861940;29;20482;-91
2023/04/15 11:12:08;;;;;;;5.13;1.50;;;11.80;99.90;;;;;;4861950;29;20531;-89
2023/04/15 11:14:39;;;;;;;3.95;0.60;;;11.70;99.90;;;;;;4862418;29;20438;-88
2023/04/15 11:17:05;;;;;;;5.70;0.85;;;11.70;99.90;;;;;;4861833;29;20443;-91
2023/04/15 11:19:37;;;;;;;4.00;0.80;;;11.40;99.90;;;;;;4861817;29;20630;-93
2023/04/15 11:22:10;;;;;;;3.10;0.90;;;11.20;99.90;;;;;;4862358;29;20933;-93
2023/04/15 11:24:36;;;;;;;2.42;0.57;;;11.30;99.90;;;;;;4860869;29;20487;-91
2023/04/15 11:27:02;;;;;;;4.18;0.70;;;11.40;99.90;;;;;;4861822;29;20738;-94
2023/04/15 11:29:31;;;;;;;5.80;1.17;;;11.20;99.90;;;;;;4860722;29;20418;-91
2023/04/15 11:32:08;;;;;;;4.93;0.57;;;11.00;99.90;;;;;;4861376;29;20423;-92
2023/04/15 11:34:34;;;;;;;4.68;0.60;;;11.60;99.90;;;;;;4860999;29;20781;-90
2023/04/15 11:37:04;;;;;;;3.40;0.60;;;11.40;99.90;;;;;;4860067;29;20451;-93
2023/04/15 11:39:30;;;;;;;16.30;5.25;;;11.40;99.90;;;;;;4896823;29;20416;-92
2023/04/15 11:41:55;;;;;;;3.55;0.52;;;11.50;99.90;;;;;;4897125;29;20422;-91
2023/04/15 11:44:21;;;;;;;6.13;0.87;;;11.60;99.90;;;;;;4898751;29;21012;-92
2023/04/15 11:46:47;;;;;;;3.58;0.50;;;12.00;99.90;;;;;;4898211;29;20423;-93
2023/04/15 11:49:29;;;;;;;2.53;0.40;;;11.90;99.90;;;;;;4898715;29;20443;-91
2023/04/15 11:51:55;;;;;;;7.90;1.45;;;11.40;99.90;;;;;;4899260;29;20439;-92
2023/04/15 11:54:21;;;;;;;3.85;0.50;;;11.80;99.90;;;;;;4898893;29;20490;-93
2023/04/15 11:56:51;;;;;;;3.85;0.60;;;11.50;99.90;;;;;;4898075;29;20949;-91
2023/04/15 11:59:17;;;;;;;4.50;0.45;;;11.50;99.90;;;;;;4897509;29;20519;-91
2023/04/15 12:01:45;;;;;;;4.17;0.67;;;11.70;99.90;;;;;;4898365;29;20479;-91
2023/04/15 12:04:17;;;;;;;4.10;0.60;;;11.30;99.90;;;;;;4897388;29;20448;-91
2023/04/15 12:06:44;;;;;;;4.65;0.63;;;10.90;99.90;;;;;;4898330;29;20506;-92
2023/04/15 12:09:11;;;;;;;4.50;0.63;;;11.10;99.90;;;;;;4897640;29;20927;-92
2023/04/15 12:11:50;;;;;;;5.47;0.77;;;11.00;99.90;;;;;;4898392;29;20423;-91
2023/04/15 12:14:27;;;;;;;6.40;0.90;;;10.70;99.90;;;;;;4898356;29;20418;-92
2023/04/15 12:17:01;;;;;;;6.20;1.08;;;10.60;99.90;;;;;;4913350;29;20431;-90
2023/04/15 12:19:28;;;;;;;6.65;1.00;;;10.40;99.90;;;;;;4897881;29;20957;-92
2023/04/15 12:22:05;;;;;;;5.33;0.77;;;10.70;99.90;;;;;;4897200;29;20479;-93
2023/04/15 12:24:32;;;;;;;5.90;0.73;;;10.10;99.90;;;;;;4897923;29;20419;-90
2023/04/15 12:27:05;;;;;;;5.38;0.80;;;10.10;99.90;;;;;;4898576;29;20810;-91
2023/04/15 12:29:33;;;;;;;8.73;1.25;;;10.10;99.90;;;;;;4897710;29;20491;-93
2023/04/15 12:32:11;;;;;;;6.18;0.77;;;10.20;99.90;;;;;;4898036;29;20490;-92
2023/04/15 12:34:43;;;;;;;7.65;0.80;;;10.30;99.90;;;;;;4897690;29;20409;-92
2023/04/15 12:37:12;;;;;;;5.53;0.50;;;10.40;99.90;;;;;;4898020;29;20427;-91
2023/04/15 12:39:43;;;;;;;82.78;17.23;;;10.70;99.90;;;;;;4897534;29;20411;-90
2023/04/15 12:42:11;;;;;;;7.43;0.85;;;10.30;99.90;;;;;;4897753;29;20417;-93
2023/04/15 12:44:38;;;;;;;5.68;0.60;;;10.40;99.90;;;;;;4897944;29;20515;-92